Time;durP1;ratioP1;P1;durP2;ratioP2;P2;SDS_P1;SDS_P2;PMS_P1;PMS_P2;Temp;Humidity;BMP_temperature;BMP_pressure;BME280_temperature;BME280_humidity;BME280_pressure;Samples;Min_cycle;Max_cycle;Signal;HPM_P1;HPM_P2
2023/11/16 00:02:16;;;;;;;8.73;4.03;;;;;;;8.58;100.00;100535.53;5017956;28;20207;-82
2023/11/16 00:04:43;;;;;;;9.33;4.07;;;;;;;8.55;100.00;100541.88;5013052;28;20322;-83
2023/11/16 00:07:10;;;;;;;5.53;3.63;;;;;;;8.54;100.00;100536.66;5022785;28;20230;-82
2023/11/16 00:09:37;;;;;;;9.17;3.80;;;;;;;8.55;100.00;100538.38;5028776;28;20202;-84
2023/11/16 00:12:06;;;;;;;7.53;4.00;;;;;;;8.59;100.00;100538.13;5020692;28;20209;-83
2023/11/16 00:14:32;;;;;;;7.80;4.47;;;;;;;8.58;100.00;100535.53;5010456;28;20310;-82
2023/11/16 00:16:59;;;;;;;11.10;3.90;;;;;;;8.54;100.00;100534.84;5021455;28;20221;-82
2023/11/16 00:19:26;;;;;;;7.73;3.53;;;;;;;8.58;100.00;100538.19;5017294;28;20209;-82
2023/11/16 00:21:53;;;;;;;8.60;3.57;;;;;;;8.59;100.00;100542.56;5020753;28;20211;-83
2023/11/16 00:24:19;;;;;;;9.40;3.70;;;;;;;8.62;100.00;100537.06;5024571;28;20255;-82
2023/11/16 00:26:46;;;;;;;7.77;3.27;;;;;;;8.62;100.00;100529.09;5011770;28;20636;-83
2023/11/16 00:29:16;;;;;;;8.70;3.20;;;;;;;8.62;100.00;100523.78;5014435;28;20741;-84
2023/11/16 00:31:42;;;;;;;6.80;2.90;;;;;;;8.62;100.00;100521.97;5014049;28;20255;-82
2023/11/16 00:34:09;;;;;;;6.23;3.07;;;;;;;8.63;100.00;100522.84;5013421;28;20299;-82
2023/11/16 00:36:38;;;;;;;4.07;2.60;;;;;;;8.68;100.00;100507.50;5018084;28;20241;-83
2023/11/16 00:39:05;;;;;;;6.33;2.60;;;;;;;8.65;100.00;100508.53;5012734;28;20211;-82
2023/11/16 00:41:31;;;;;;;7.90;2.80;;;;;;;8.63;100.00;100501.59;5018336;28;20211;-83
2023/11/16 00:44:01;;;;;;;9.37;2.67;;;;;;;8.64;100.00;100501.50;5013629;28;20605;-84
2023/11/16 00:46:29;;;;;;;6.63;3.23;;;;;;;8.67;100.00;100497.84;5012106;28;20229;-84
2023/11/16 00:48:55;;;;;;;6.57;3.23;;;;;;;8.68;100.00;100495.09;5018500;28;20203;-81
2023/11/16 00:51:22;;;;;;;9.40;3.03;;;;;;;8.68;100.00;100491.59;5023944;28;20206;-84
2023/11/16 00:53:48;;;;;;;7.70;2.63;;;;;;;8.67;100.00;100497.84;5018303;28;20227;-82
2023/11/16 00:56:15;;;;;;;6.00;2.60;;;;;;;8.67;99.49;100501.34;5017427;28;20210;-82
2023/11/16 00:58:44;;;;;;;9.30;3.07;;;;;;;8.72;99.84;100502.88;5014939;28;20211;-85
2023/11/16 01:01:12;;;;;;;5.30;2.47;;;;;;;8.68;99.90;100503.06;5017292;28;20237;-82
2023/11/16 01:03:41;;;;;;;5.23;2.60;;;;;;;8.70;99.36;100500.31;5021960;28;20222;-82
2023/11/16 01:06:08;;;;;;;7.43;2.30;;;;;;;8.73;98.58;100493.97;5018825;28;20270;-84
2023/11/16 01:08:36;;;;;;;7.77;2.87;;;;;;;8.73;98.96;100508.09;5016206;28;20566;-84
2023/11/16 01:11:03;;;;;;;5.80;3.00;;;;;;;8.70;99.09;100506.47;5018493;28;20279;-84
2023/11/16 01:13:38;;;;;;;6.77;3.00;;;;;;;8.68;98.49;100491.59;5021294;28;20228;-83
2023/11/16 01:16:12;;;;;;;5.67;2.70;;;;;;;8.68;98.10;100495.09;5012873;28;20229;-81
2023/11/16 01:18:46;;;;;;;5.77;2.90;;;;;;;8.70;98.14;100502.97;5017892;28;20220;-82
2023/11/16 01:21:13;;;;;;;6.60;2.50;;;;;;;8.67;97.54;100496.03;5016007;28;20227;-82
2023/11/16 01:23:40;;;;;;;6.43;2.47;;;;;;;8.67;97.70;100488.06;5017643;28;20238;-82
2023/11/16 01:26:13;;;;;;;4.90;2.67;;;;;;;8.68;98.30;100488.94;5018970;28;20214;-81
2023/11/16 01:28:45;;;;;;;8.90;2.83;;;;;;;8.72;98.28;100495.78;5014835;28;20201;-82
2023/11/16 01:31:12;;;;;;;5.87;2.30;;;;;;;8.73;97.43;100486.88;5022521;28;20263;-85
2023/11/16 01:33:40;;;;;;;11.83;2.97;;;;;;;8.74;97.51;100485.06;5017729;28;20230;-83
2023/11/16 01:36:08;;;;;;;8.00;3.30;;;;;;;8.74;97.74;100485.94;5013896;28;20205;-84
2023/11/16 01:38:36;;;;;;;8.20;2.97;;;;;;;8.71;98.01;100478.13;5015116;28;20662;-85
2023/11/16 01:41:04;;;;;;;4.13;2.57;;;;;;;8.72;97.75;100485.16;5014105;28;20294;-83
2023/11/16 01:43:32;;;;;;;5.70;2.70;;;;;;;8.70;97.40;100477.28;5016178;28;20231;-82
2023/11/16 01:45:59;;;;;;;6.70;2.77;;;;;;;8.74;96.85;100480.63;5020871;28;20233;-84
2023/11/16 01:48:29;;;;;;;10.33;3.60;;;;;;;8.74;96.85;100482.41;5023056;28;20647;-82
2023/11/16 01:50:57;;;;;;;4.50;2.93;;;;;;;8.73;96.66;100486.00;5022805;28;21640;-83
2023/11/16 01:53:25;;;;;;;8.73;3.07;;;;;;;8.67;96.92;100484.56;5013092;28;20601;-83
2023/11/16 01:55:55;;;;;;;7.43;2.90;;;;;;;8.68;97.37;100491.59;5017321;28;20223;-84
2023/11/16 01:58:22;;;;;;;8.17;3.83;;;;;;;8.72;97.47;100490.47;5022246;28;20237;-83
2023/11/16 02:00:49;;;;;;;7.20;3.37;;;;;;;8.69;97.28;100498.59;5022358;28;20289;-82
2023/11/16 02:03:15;;;;;;;7.90;4.17;;;;;;;8.69;97.17;100486.19;5009820;28;20240;-84
2023/11/16 02:05:42;;;;;;;6.20;3.03;;;;;;;8.76;96.65;100485.84;5023125;28;20230;-82
2023/11/16 02:08:10;;;;;;;7.73;2.93;;;;;;;8.77;96.50;100487.56;5025335;28;20218;-84
2023/11/16 02:10:37;;;;;;;9.00;3.43;;;;;;;8.74;97.01;100472.66;5017962;28;20203;-84
2023/11/16 02:13:04;;;;;;;3.63;3.03;;;;;;;8.77;96.21;100471.63;5021520;28;20251;-82
2023/11/16 02:15:31;;;;;;;5.83;2.90;;;;;;;8.76;95.89;100472.56;5014847;28;20203;-83
2023/11/16 02:17:58;;;;;;;7.57;3.00;;;;;;;8.76;95.73;100465.44;5024948;28;20273;-85
2023/11/16 02:20:28;;;;;;;10.93;2.90;;;;;;;8.77;95.76;100474.28;5021895;28;20217;-82
2023/11/16 02:22:56;;;;;;;5.70;3.00;;;;;;;8.75;96.21;100477.00;5020709;28;20211;-82
2023/11/16 02:25:26;;;;;;;6.37;2.80;;;;;;;8.77;96.45;100469.81;5027466;28;20215;-81
2023/11/16 02:27:54;;;;;;;6.03;2.83;;;;;;;8.75;96.17;100479.66;5018131;28;20207;-82
2023/11/16 02:30:20;;;;;;;9.97;3.27;;;;;;;8.75;96.20;100468.19;5015312;28;20258;-82
2023/11/16 02:32:47;;;;;;;9.00;4.17;;;;;;;8.71;96.50;100483.44;5014997;28;20234;-82
2023/11/16 02:35:13;;;;;;;7.37;3.03;;;;;;;8.73;96.22;100480.69;5024047;28;20212;-82
2023/11/16 02:37:40;;;;;;;8.27;3.03;;;;;;;8.71;96.42;100483.44;5019250;28;20246;-82
2023/11/16 02:40:10;;;;;;;6.37;3.30;;;;;;;8.72;97.00;100481.66;5024178;28;20454;-82
2023/11/16 02:42:38;;;;;;;4.87;3.03;;;;;;;8.67;97.98;100485.41;5025819;28;20203;-82
2023/11/16 02:45:06;;;;;;;10.23;3.93;;;;;;;8.65;98.01;100481.13;5026118;28;20230;-82
2023/11/16 02:47:33;;;;;;;7.33;3.00;;;;;;;8.70;97.95;100476.41;5022961;28;20218;-83
2023/11/16 02:50:00;;;;;;;10.07;4.40;;;;;;;8.70;97.89;100466.66;5027076;28;20211;-83
2023/11/16 02:52:26;;;;;;;7.57;2.87;;;;;;;8.70;97.63;100465.81;5027621;28;20214;-83
2023/11/16 02:54:54;;;;;;;7.13;2.67;;;;;;;8.73;97.76;100467.44;5022271;28;20289;-84
2023/11/16 02:57:20;;;;;;;8.60;3.03;;;;;;;8.70;97.12;100466.66;5027123;28;20226;-82
2023/11/16 02:59:49;;;;;;;7.40;2.77;;;;;;;8.73;96.57;100467.44;5022260;28;20211;-83
2023/11/16 03:02:18;;;;;;;5.70;3.00;;;;;;;8.70;96.31;100471.09;5023576;28;20206;-81
2023/11/16 03:04:45;;;;;;;7.23;2.70;;;;;;;8.71;96.59;100478.13;5022763;28;20234;-82
2023/11/16 03:07:12;;;;;;;8.73;3.37;;;;;;;8.73;96.05;100470.94;5028732;28;20353;-82
2023/11/16 03:09:38;;;;;;;6.83;3.03;;;;;;;8.74;96.44;100475.31;5020043;28;20203;-83
2023/11/16 03:12:06;;;;;;;5.70;2.77;;;;;;;8.73;95.80;100470.09;5018143;28;20207;-82
2023/11/16 03:14:32;;;;;;;10.60;2.80;;;;;;;8.75;95.46;100471.72;5019485;28;20227;-82
2023/11/16 03:17:00;;;;;;;6.80;3.17;;;;;;;8.70;95.55;100471.97;5015949;28;20302;-81
2023/11/16 03:19:27;;;;;;;5.97;3.17;;;;;;;8.69;96.13;100464.94;5021716;28;20203;-82
2023/11/16 03:21:54;;;;;;;5.97;2.50;;;;;;;8.74;95.78;100455.88;5019857;28;20217;-82
2023/11/16 03:24:22;;;;;;;4.63;2.63;;;;;;;8.75;95.89;100478.81;5019375;28;20250;-82
2023/11/16 03:26:48;;;;;;;5.10;2.77;;;;;;;8.72;95.86;100452.44;5015652;28;20279;-82
2023/11/16 03:29:16;;;;;;;7.50;2.83;;;;;;;8.70;96.20;100466.66;5017049;28;20644;-83
2023/11/16 03:31:42;;;;;;;5.50;3.33;;;;;;;8.68;96.02;100460.56;5020077;28;20247;-84
2023/11/16 03:34:13;;;;;;;6.03;2.93;;;;;;;8.67;95.20;100456.22;5020112;28;20220;-84
2023/11/16 03:36:40;;;;;;;5.77;3.10;;;;;;;8.68;95.55;100465.03;5026282;28;20204;-83
2023/11/16 03:39:06;;;;;;;5.53;2.73;;;;;;;8.69;95.72;100472.06;5026755;28;20271;-84
2023/11/16 03:41:33;;;;;;;8.63;2.53;;;;;;;8.64;95.58;100467.00;5021704;28;20287;-84
2023/11/16 03:44:00;;;;;;;8.83;2.97;;;;;;;8.64;95.60;100469.66;5033686;28;20226;-82
2023/11/16 03:46:26;;;;;;;5.23;2.60;;;;;;;8.70;95.53;100455.19;5016458;28;20204;-82
2023/11/16 03:48:53;;;;;;;7.33;3.20;;;;;;;8.69;95.68;100453.47;5023829;28;20211;-84
2023/11/16 03:51:20;;;;;;;8.07;3.20;;;;;;;8.68;94.64;100465.88;5025451;28;20203;-84
2023/11/16 03:53:47;;;;;;;6.80;2.93;;;;;;;8.69;95.47;100459.63;5018600;28;20290;-84
2023/11/16 03:56:14;;;;;;;6.77;3.53;;;;;;;8.67;94.93;100464.19;5026486;28;20199;-82
2023/11/16 03:58:40;;;;;;;7.10;3.07;;;;;;;8.67;94.73;100472.13;5016445;28;20235;-81
2023/11/16 04:01:07;;;;;;;4.23;2.67;;;;;;;8.65;94.46;100465.19;5022923;28;20207;-82
2023/11/16 04:03:34;;;;;;;5.73;2.53;;;;;;;8.67;94.30;100461.53;5030114;28;20229;-85
2023/11/16 04:06:01;;;;;;;6.13;3.63;;;;;;;8.59;94.38;100463.78;5027246;28;20211;-82
2023/11/16 04:08:29;;;;;;;7.73;3.50;;;;;;;8.62;94.84;100452.97;5020838;28;20211;-84
2023/11/16 04:10:55;;;;;;;7.03;3.37;;;;;;;8.64;94.61;100455.53;5020306;28;20207;-81
2023/11/16 04:13:22;;;;;;;6.73;3.43;;;;;;;8.62;94.85;100466.22;5030091;28;20234;-83
2023/11/16 04:15:48;;;;;;;5.33;3.67;;;;;;;8.64;94.20;100472.31;5015750;28;20203;-83
2023/11/16 04:18:15;;;;;;;8.50;4.60;;;;;;;8.65;94.58;100468.72;5014141;28;20211;-83
2023/11/16 04:20:41;;;;;;;5.90;4.20;;;;;;;8.68;94.74;100468.53;5010989;28;20242;-82
2023/11/16 04:23:08;;;;;;;8.53;4.40;;;;;;;8.66;94.68;100472.22;4996183;28;20233;-82
2023/11/16 04:25:36;;;;;;;9.67;3.80;;;;;;;8.65;94.98;100471.38;5006295;28;20226;-84
2023/11/16 04:28:04;;;;;;;6.33;3.83;;;;;;;8.65;94.77;100465.19;5008218;28;20211;-83
2023/11/16 04:30:31;;;;;;;8.97;4.20;;;;;;;8.68;94.38;100457.06;5013896;28;20297;-84
2023/11/16 04:32:58;;;;;;;7.30;3.70;;;;;;;8.63;93.95;100449.38;5011828;28;20701;-82
2023/11/16 04:35:24;;;;;;;6.80;3.60;;;;;;;8.63;94.31;100444.06;5012509;28;20257;-82
2023/11/16 04:37:53;;;;;;;5.53;3.57;;;;;;;8.65;94.20;100463.41;5011845;28;20214;-83
2023/11/16 04:40:22;;;;;;;6.90;3.60;;;;;;;8.65;93.61;100457.25;5003512;28;20199;-83
2023/11/16 04:42:50;;;;;;;11.07;3.93;;;;;;;8.63;93.88;100449.38;5001600;28;20207;-83
2023/11/16 04:45:18;;;;;;;7.50;3.13;;;;;;;8.61;94.01;100447.75;5005965;28;20313;-83
2023/11/16 04:47:46;;;;;;;3.60;2.07;;;;;;;8.61;94.44;100453.03;5015900;28;20238;-83
2023/11/16 04:50:16;;;;;;;7.43;3.40;;;;;;;8.60;93.58;100446.88;5009905;28;20329;-82
2023/11/16 04:52:42;;;;;;;6.43;2.80;;;;;;;8.60;93.81;100443.38;5009850;28;20203;-82
2023/11/16 04:55:09;;;;;;;8.40;3.63;;;;;;;8.59;93.18;100447.00;5007556;28;20579;-82
2023/11/16 04:57:35;;;;;;;4.60;2.40;;;;;;;8.56;93.67;100449.81;5010830;28;20210;-82
2023/11/16 05:00:06;;;;;;;4.70;2.40;;;;;;;8.53;92.84;100453.50;5007552;28;20199;-84
2023/11/16 05:02:33;;;;;;;3.73;2.20;;;;;;;8.54;93.04;100441.09;5013878;28;20206;-83
2023/11/16 05:04:59;;;;;;;6.13;2.07;;;;;;;8.53;93.53;100440.25;5008771;28;20226;-83
2023/11/16 05:07:26;;;;;;;6.07;2.40;;;;;;;8.52;93.43;100442.97;5004194;28;20203;-83
2023/11/16 05:09:53;;;;;;;3.10;2.13;;;;;;;8.51;92.69;100441.28;5006502;28;20211;-84
2023/11/16 05:12:19;;;;;;;5.00;2.30;;;;;;;8.52;92.14;100445.63;5009549;28;20199;-83
2023/11/16 05:14:46;;;;;;;4.30;2.93;;;;;;;8.51;92.50;100450.09;5012276;28;20230;-83
2023/11/16 05:17:14;;;;;;;2.00;1.80;;;;;;;8.50;92.38;100455.47;5011651;28;20202;-83
2023/11/16 05:19:40;;;;;;;5.97;2.37;;;;;;;8.50;92.92;100456.34;5012152;28;20214;-83
2023/11/16 05:22:07;;;;;;;4.87;2.27;;;;;;;8.49;93.40;100459.06;5013680;28;20668;-82
2023/11/16 05:24:34;;;;;;;6.40;2.40;;;;;;;8.49;93.10;100457.28;5012317;28;20285;-83
2023/11/16 05:27:02;;;;;;;3.33;1.90;;;;;;;8.50;93.64;100458.13;5012531;28;20337;-83
2023/11/16 05:29:29;;;;;;;4.70;2.40;;;;;;;8.49;93.62;100459.06;5006301;28;20291;-83
2023/11/16 05:31:56;;;;;;;5.60;2.20;;;;;;;8.48;93.33;100454.72;5009436;28;20246;-83
2023/11/16 05:34:24;;;;;;;4.57;2.23;;;;;;;8.47;93.16;100455.66;4999154;28;20227;-83
2023/11/16 05:36:52;;;;;;;7.60;2.40;;;;;;;8.46;93.60;100461.91;5008559;28;20215;-85
2023/11/16 05:39:19;;;;;;;5.53;2.40;;;;;;;8.49;94.05;100467.03;5007959;28;20205;-82
2023/11/16 05:41:46;;;;;;;5.47;2.67;;;;;;;8.45;93.74;100469.00;5009760;28;21138;-83
2023/11/16 05:44:13;;;;;;;6.07;2.73;;;;;;;8.48;93.95;100454.72;5013002;28;20696;-82
2023/11/16 05:46:39;;;;;;;5.17;2.60;;;;;;;8.45;94.81;100461.03;4998828;28;20206;-83
2023/11/16 05:49:07;;;;;;;4.73;2.50;;;;;;;8.45;95.27;100469.00;5009450;28;20218;-83
2023/11/16 05:51:36;;;;;;;4.83;2.13;;;;;;;8.44;94.99;100467.28;5004968;28;20223;-82
2023/11/16 05:54:05;;;;;;;4.33;2.17;;;;;;;8.43;94.96;100475.34;5008641;28;20571;-82
2023/11/16 05:56:32;;;;;;;4.03;2.23;;;;;;;8.42;95.81;100474.47;5006579;28;20207;-82
2023/11/16 05:58:58;;;;;;;4.27;2.60;;;;;;;8.38;95.40;100478.28;5010581;28;20206;-82
2023/11/16 06:01:25;;;;;;;5.17;2.60;;;;;;;8.40;96.51;100476.41;5012760;28;20241;-83
2023/11/16 06:03:51;;;;;;;3.40;2.37;;;;;;;8.40;96.17;100475.53;5003999;28;20236;-82
2023/11/16 06:06:20;;;;;;;4.97;2.10;;;;;;;8.39;96.78;100489.75;5010533;28;20227;-83
2023/11/16 06:08:53;;;;;;;4.37;2.47;;;;;;;8.39;96.89;100487.09;5012988;28;20218;-81
2023/11/16 06:11:20;;;;;;;5.30;2.30;;;;;;;8.39;97.57;100492.41;5007530;28;20770;-82
2023/11/16 06:13:46;;;;;;;4.80;2.17;;;;;;;8.34;97.57;100488.22;5011126;28;20717;-82
2023/11/16 06:16:13;;;;;;;3.47;2.47;;;;;;;8.31;98.34;100491.00;5009583;28;20210;-82
2023/11/16 06:18:39;;;;;;;5.30;2.20;;;;;;;8.31;98.97;100491.00;5009782;28;20210;-82
2023/11/16 06:21:06;;;;;;;5.73;2.03;;;;;;;8.30;99.17;100493.72;5014175;28;20289;-82
2023/11/16 06:23:33;;;;;;;3.57;2.13;;;;;;;8.28;99.82;100490.31;5011848;28;20227;-82
2023/11/16 06:26:02;;;;;;;6.77;2.37;;;;;;;8.25;99.72;100491.34;5004137;28;20224;-82
2023/11/16 06:28:28;;;;;;;3.33;2.10;;;;;;;8.23;100.00;100497.69;5005109;28;20204;-83
2023/11/16 06:30:55;;;;;;;2.77;1.63;;;;;;;8.20;100.00;100492.56;5009084;28;20211;-82
2023/11/16 06:33:21;;;;;;;5.30;2.00;;;;;;;8.16;100.00;100491.88;5007788;28;20228;-82
2023/11/16 06:35:48;;;;;;;4.17;2.00;;;;;;;8.16;100.00;100502.47;5013281;28;20215;-82
2023/11/16 06:38:16;;;;;;;4.33;1.50;;;;;;;8.16;100.00;100509.56;5008497;28;20211;-82
2023/11/16 06:40:43;;;;;;;3.50;1.40;;;;;;;8.16;100.00;100507.78;5015753;28;20669;-82
2023/11/16 06:43:11;;;;;;;2.20;1.40;;;;;;;8.12;100.00;100508.88;5006443;28;20233;-82
2023/11/16 06:45:40;;;;;;;4.07;1.20;;;;;;;8.10;100.00;100510.75;5007676;28;21284;-82
2023/11/16 06:48:07;;;;;;;4.30;1.53;;;;;;;8.08;100.00;100509.13;5007818;28;20206;-83
2023/11/16 06:50:34;;;;;;;4.43;1.30;;;;;;;8.08;100.00;100517.94;5006741;28;20207;-82
2023/11/16 06:53:05;;;;;;;2.77;1.20;;;;;;;8.04;100.00;100519.06;5011087;28;20242;-81
2023/11/16 06:55:32;;;;;;;4.90;0.80;;;;;;;8.00;99.46;100517.53;5010042;28;20199;-83
2023/11/16 06:57:59;;;;;;;3.60;0.80;;;;;;;7.93;95.57;100532.03;5009914;28;20210;-80
2023/11/16 07:00:27;;;;;;;0.90;0.70;;;;;;;7.87;93.14;100532.41;5011439;28;20203;-81
2023/11/16 07:02:54;;;;;;;1.13;0.40;;;;;;;7.81;92.26;100541.53;5013482;28;20236;-80
2023/11/16 07:05:21;;;;;;;3.80;0.83;;;;;;;7.79;92.64;100539.91;5008943;28;20249;-81
2023/11/16 07:07:47;;;;;;;1.93;0.50;;;;;;;7.77;92.36;100544.41;5017271;28;20226;-82
2023/11/16 07:10:15;;;;;;;2.13;0.80;;;;;;;7.74;90.89;100540.13;5014307;28;20210;-81
2023/11/16 07:12:42;;;;;;;3.20;0.57;;;;;;;7.74;90.99;100533.97;5010574;28;20254;-81
2023/11/16 07:15:10;;;;;;;3.13;0.60;;;;;;;7.69;90.10;100536.91;5012535;28;20199;-81
2023/11/16 07:17:40;;;;;;;1.23;0.40;;;;;;;7.68;90.88;100551.09;5010241;28;20229;-82
2023/11/16 07:20:09;;;;;;;2.17;0.40;;;;;;;7.66;89.80;100555.59;5014290;28;20560;-82
2023/11/16 07:22:36;;;;;;;3.63;0.50;;;;;;;7.64;89.57;100565.44;5005109;28;20305;-83
2023/11/16 07:25:06;;;;;;;1.70;0.60;;;;;;;7.57;88.75;100566.66;5008809;28;20242;-82
2023/11/16 07:27:33;;;;;;;2.27;0.50;;;;;;;7.55;89.62;100566.75;5005980;28;20375;-81
2023/11/16 07:29:59;;;;;;;2.47;0.60;;;;;;;7.55;88.88;100568.53;5009873;28;20213;-83
2023/11/16 07:32:26;;;;;;;2.47;0.57;;;;;;;7.53;88.97;100581.00;5006176;28;20207;-82
2023/11/16 07:34:55;;;;;;;1.43;0.60;;;;;;;7.54;89.34;100580.06;5008377;28;20223;-83
2023/11/16 07:37:21;;;;;;;4.03;0.60;;;;;;;7.57;89.16;100591.38;5008607;28;20207;-82
2023/11/16 07:39:48;;;;;;;1.20;0.40;;;;;;;7.58;89.81;100594.88;5005519;28;20318;-84
2023/11/16 07:42:14;;;;;;;1.43;0.77;;;;;;;7.61;89.46;100586.78;5012198;28;20207;-83
2023/11/16 07:44:43;;;;;;;3.60;0.60;;;;;;;7.60;88.06;100593.03;5003297;28;20255;-82
2023/11/16 07:47:09;;;;;;;2.57;0.60;;;;;;;7.60;88.10;100588.59;5012417;28;20214;-82
2023/11/16 07:49:36;;;;;;;1.50;0.40;;;;;;;7.59;88.04;100588.66;5004366;28;20243;-82
2023/11/16 07:52:04;;;;;;;2.27;0.73;;;;;;;7.59;88.43;100592.16;5009183;28;20213;-82
2023/11/16 07:54:31;;;;;;;3.33;0.70;;;;;;;7.60;88.84;100593.03;5005859;28;20310;-83
2023/11/16 07:57:02;;;;;;;2.57;0.70;;;;;;;7.60;88.85;100599.19;5008729;28;20206;-82
2023/11/16 07:59:32;;;;;;;0.67;0.50;;;;;;;7.62;88.41;100601.75;5009461;28;20290;-83
2023/11/16 08:02:00;;;;;;;2.60;0.67;;;;;;;7.63;88.57;100598.16;5007299;28;20206;-82
2023/11/16 08:04:26;;;;;;;2.07;0.50;;;;;;;7.61;88.13;100600.03;5007444;28;20227;-82
2023/11/16 08:06:54;;;;;;;2.60;0.50;;;;;;;7.61;88.47;100605.34;5009869;28;20226;-82
2023/11/16 08:09:23;;;;;;;2.70;0.57;;;;;;;7.63;88.18;100601.69;5005306;28;20215;-82
2023/11/16 08:11:53;;;;;;;3.97;0.43;;;;;;;7.62;87.61;100602.63;5006413;28;20203;-82
2023/11/16 08:14:21;;;;;;;2.10;0.60;;;;;;;7.65;87.38;100602.47;5007600;28;20259;-82
2023/11/16 08:16:49;;;;;;;1.77;0.90;;;;;;;7.67;87.46;100599.72;5012044;28;20203;-82
2023/11/16 08:19:15;;;;;;;3.33;0.80;;;;;;;7.69;87.65;100602.31;5009185;28;20761;-82
2023/11/16 08:21:42;;;;;;;2.57;0.70;;;;;;;7.70;86.54;100599.56;5005178;28;20936;-82
2023/11/16 08:24:10;;;;;;;1.57;0.63;;;;;;;7.75;85.60;100594.88;5012886;28;20237;-83
2023/11/16 08:26:38;;;;;;;1.73;0.53;;;;;;;7.75;85.16;100596.66;5008259;28;20310;-82
2023/11/16 08:29:04;;;;;;;2.37;0.83;;;;;;;7.74;85.05;100587.00;5002611;28;20307;-83
2023/11/16 08:31:31;;;;;;;2.83;0.80;;;;;;;7.78;85.07;100591.22;5010635;28;20211;-82
2023/11/16 08:33:57;;;;;;;3.17;0.50;;;;;;;7.78;84.55;100585.91;5004890;28;20232;-82
2023/11/16 08:36:25;;;;;;;2.90;0.70;;;;;;;7.81;84.68;100580.44;5010702;28;20648;-82
2023/11/16 08:38:51;;;;;;;3.57;0.90;;;;;;;7.82;85.84;100585.66;5004739;28;20212;-82
2023/11/16 08:41:18;;;;;;;3.93;0.70;;;;;;;7.86;86.20;100579.28;5009149;28;20221;-83
2023/11/16 08:43:50;;;;;;;2.90;0.70;;;;;;;7.90;86.22;100575.50;5007768;28;20234;-82
2023/11/16 08:46:24;;;;;;;1.00;0.40;;;;;;;7.92;85.82;100572.75;5008687;28;20208;-82
2023/11/16 08:48:51;;;;;;;3.83;1.03;;;;;;;7.95;85.31;100578.75;5008511;28;20203;-83
2023/11/16 08:51:17;;;;;;;3.30;0.70;;;;;;;7.99;85.08;100569.72;5008606;28;20202;-83
2023/11/16 08:53:46;;;;;;;1.63;0.50;;;;;;;8.04;85.56;100580.06;5014290;28;20760;-82
2023/11/16 08:56:14;;;;;;;2.93;0.70;;;;;;;8.11;85.34;100572.63;5010700;28;21082;-83
2023/11/16 08:58:47;;;;;;;6.47;1.47;;;;;;;8.15;83.83;100571.53;5012636;28;20215;-83
2023/11/16 09:01:17;;;;;;;4.10;0.97;;;;;;;8.18;84.23;100569.56;5009424;28;20198;-82
2023/11/16 09:03:45;;;;;;;0.90;0.30;;;;;;;8.23;83.19;100577.28;5006183;28;20245;-82
2023/11/16 09:06:15;;;;;;;3.27;1.07;;;;;;;8.26;82.96;100583.25;5007449;28;20310;-82
2023/11/16 09:08:42;;;;;;;2.80;1.00;;;;;;;8.30;81.72;100590.13;5003756;28;20206;-84
2023/11/16 09:11:09;;;;;;;4.30;0.93;;;;;;;8.31;80.97;100590.97;5010028;28;20210;-83
2023/11/16 09:13:36;;;;;;;1.07;0.63;;;;;;;8.37;81.08;100589.81;5000251;28;20233;-84
2023/11/16 09:16:05;;;;;;;2.90;0.50;;;;;;;8.40;80.78;100597.63;5004420;28;20302;-82
2023/11/16 09:18:33;;;;;;;2.33;0.50;;;;;;;8.40;80.04;100594.97;5007749;28;20211;-83
2023/11/16 09:21:02;;;;;;;2.87;0.63;;;;;;;8.45;79.70;100598.19;5006656;28;20208;-82
2023/11/16 09:23:29;;;;;;;3.80;0.60;;;;;;;8.47;79.90;100606.94;5008015;28;20324;-82
2023/11/16 09:25:57;;;;;;;1.73;0.50;;;;;;;8.52;78.98;100607.53;5006494;28;20317;-83
2023/11/16 09:28:23;;;;;;;1.33;0.70;;;;;;;8.54;78.91;100603.88;5010252;28;20207;-83
2023/11/16 09:30:50;;;;;;;1.67;0.50;;;;;;;8.56;77.77;100599.34;5006491;28;20215;-83
2023/11/16 09:33:18;;;;;;;2.53;0.40;;;;;;;8.58;77.71;100601.91;5005497;28;20710;-83
2023/11/16 09:35:46;;;;;;;2.60;0.60;;;;;;;8.62;77.52;100596.31;5017390;28;20207;-82
2023/11/16 09:38:13;;;;;;;2.50;0.70;;;;;;;8.67;78.16;100585.44;5005162;28;20243;-83
2023/11/16 09:40:41;;;;;;;2.73;1.10;;;;;;;8.72;76.06;100588.72;5004721;28;20199;-82
2023/11/16 09:43:21;;;;;;;1.73;0.50;;;;;;;8.69;76.40;100583.56;5007392;28;20295;-83
2023/11/16 09:45:50;;;;;;;1.17;0.40;;;;;;;8.67;75.84;100566.84;5006598;28;20225;-83
2023/11/16 09:48:20;;;;;;;1.77;0.83;;;;;;;8.64;76.06;100569.69;5009638;28;20203;-83
2023/11/16 09:50:50;;;;;;;2.33;0.83;;;;;;;8.69;75.00;100573.81;5006770;28;20255;-83
2023/11/16 09:53:17;;;;;;;1.80;0.40;;;;;;;8.72;74.23;100579.88;5002300;28;20258;-83
2023/11/16 09:55:49;;;;;;;1.87;0.47;;;;;;;8.74;74.62;100567.38;5008027;28;20209;-83
2023/11/16 09:58:23;;;;;;;1.33;0.50;;;;;;;8.77;74.92;100560.09;5008250;28;20643;-82
2023/11/16 10:00:55;;;;;;;4.57;0.40;;;;;;;8.78;74.29;100567.09;5008701;28;20207;-83
2023/11/16 10:03:25;;;;;;;3.23;0.43;;;;;;;8.82;74.68;100563.31;5009605;28;20378;-83
2023/11/16 10:05:55;;;;;;;2.27;0.50;;;;;;;8.86;74.26;100564.00;5005186;28;20269;-83
2023/11/16 10:08:23;;;;;;;2.90;0.57;;;;;;;8.88;73.81;100555.00;5008074;28;20648;-82
2023/11/16 10:10:54;;;;;;;0.47;0.33;;;;;;;8.90;73.55;100545.16;5004452;28;20563;-83
2023/11/16 10:13:21;;;;;;;2.63;0.40;;;;;;;8.91;72.77;100548.69;5007824;28;20233;-83
2023/11/16 10:15:48;;;;;;;2.10;0.20;;;;;;;8.96;73.08;100541.28;5009701;28;20234;-83
2023/11/16 10:18:15;;;;;;;1.80;0.40;;;;;;;9.00;73.84;100534.84;5001693;28;20214;-83
2023/11/16 10:20:42;;;;;;;2.17;0.30;;;;;;;9.04;73.56;100545.22;5003607;28;20714;-83
2023/11/16 10:23:11;;;;;;;1.53;0.50;;;;;;;9.12;74.34;100538.59;5003769;28;20628;-82
2023/11/16 10:25:38;;;;;;;2.67;0.30;;;;;;;9.15;73.61;100533.06;5001759;28;20239;-83
2023/11/16 10:28:15;;;;;;;1.00;0.40;;;;;;;9.16;73.42;100537.44;5004111;28;20195;-83
2023/11/16 10:30:43;;;;;;;1.33;0.50;;;;;;;9.13;71.53;100533.19;5004963;28;20234;-82
2023/11/16 10:33:11;;;;;;;2.60;0.33;;;;;;;9.16;72.20;100534.78;5004667;28;20224;-83
2023/11/16 10:35:40;;;;;;;0.77;0.50;;;;;;;9.21;72.59;100530.06;5002588;28;20208;-83
2023/11/16 10:38:09;;;;;;;1.10;0.40;;;;;;;9.21;73.28;100546.00;5006464;28;20639;-83
2023/11/16 10:40:51;;;;;;;2.83;0.70;;;;;;;9.17;72.64;100536.50;5007065;28;20207;-82
2023/11/16 10:43:19;;;;;;;0.97;0.50;;;;;;;9.10;72.30;100538.69;5013249;28;20230;-85
2023/11/16 10:45:46;;;;;;;1.13;0.40;;;;;;;9.03;72.86;100537.31;5006496;28;20227;-83
2023/11/16 10:48:13;;;;;;;2.10;0.40;;;;;;;9.00;72.81;100541.00;5003897;28;20204;-84
2023/11/16 10:50:42;;;;;;;0.80;0.33;;;;;;;8.95;73.28;100537.78;5012828;28;20226;-82
2023/11/16 10:53:16;;;;;;;2.47;0.50;;;;;;;8.89;73.78;100539.94;5016938;28;20223;-84
2023/11/16 10:55:46;;;;;;;0.87;0.40;;;;;;;8.81;72.95;100543.03;5020970;28;20210;-84
2023/11/16 10:58:15;;;;;;;1.50;0.87;;;;;;;8.74;73.12;100531.06;5014309;28;20207;-82
2023/11/16 11:00:43;;;;;;;2.37;0.50;;;;;;;8.69;74.04;100518.03;5017138;28;20207;-83
2023/11/16 11:03:11;;;;;;;1.97;0.37;;;;;;;8.66;73.38;100514.69;5013070;28;20230;-83
2023/11/16 11:05:41;;;;;;;1.17;0.40;;;;;;;8.63;73.71;100517.53;5011936;28;20218;-83
2023/11/16 11:08:09;;;;;;;1.77;0.37;;;;;;;8.60;73.50;100518.56;5013000;28;20203;-84
2023/11/16 11:10:37;;;;;;;1.67;0.40;;;;;;;8.60;73.95;100507.09;5014918;28;20242;-82
2023/11/16 11:13:06;;;;;;;1.07;0.37;;;;;;;8.55;74.64;100501.22;5005285;28;20217;-85
2023/11/16 11:15:35;;;;;;;2.30;0.60;;;;;;;8.52;74.45;100504.03;5015483;28;20200;-84
2023/11/16 11:18:02;;;;;;;1.37;0.30;;;;;;;8.48;74.82;100498.03;5012803;28;20207;-83
2023/11/16 11:20:36;;;;;;;4.70;0.70;;;;;;;8.43;75.23;100488.59;5021642;28;20215;-83
2023/11/16 11:23:07;;;;;;;1.93;0.60;;;;;;;8.45;76.12;100497.34;5006994;28;20601;-83
2023/11/16 11:25:36;;;;;;;0.83;0.50;;;;;;;8.46;76.85;100497.25;5012903;28;20211;-83
2023/11/16 11:28:03;;;;;;;2.60;0.77;;;;;;;8.50;77.52;100503.25;5011892;28;20230;-83
2023/11/16 11:30:32;;;;;;;0.67;0.37;;;;;;;8.49;76.53;100498.88;5005011;28;20203;-84
2023/11/16 11:33:05;;;;;;;1.43;0.50;;;;;;;8.46;76.86;100493.75;5006902;28;20241;-82
2023/11/16 11:35:35;;;;;;;2.33;0.47;;;;;;;8.48;77.24;100491.88;5007692;28;20272;-83